TimeMST,TemperatureF,Dew PointF,Humidity,Sea Level PressureIn,VisibilityMPH,Wind Direction,Wind SpeedMPH,Gust SpeedMPH,PrecipitationIn,Events,Conditions,WindDirDegrees,DateUTC
12:53 AM,41.0,26.1,55,29.70,10.0,WSW,10.4,-,N/A,,Clear,250,2012-12-03 07:53:00
1:53 AM,37.9,17.1,43,29.75,10.0,WNW,13.8,-,N/A,,Clear,290,2012-12-03 08:53:00
2:53 AM,36.0,17.1,46,29.80,10.0,WNW,19.6,-,N/A,,Clear,300,2012-12-03 09:53:00
3:53 AM,37.0,12.9,37,29.85,9.0,WNW,27.6,40.3,0.00,Snow,Light Snow,300,2012-12-03 10:53:00
4:53 AM,36.0,12.0,37,29.88,10.0,NW,24.2,33.4,0.00,,Clear,310,2012-12-03 11:53:00
5:53 AM,35.1,12.0,39,29.93,10.0,WNW,24.2,-,0.00,,Clear,290,2012-12-03 12:53:00
6:53 AM,34.0,10.9,38,29.97,10.0,NW,17.3,-,N/A,,Clear,310,2012-12-03 13:53:00
7:53 AM,33.1,12.0,42,30.01,10.0,NW,9.2,-,N/A,,Clear,310,2012-12-03 14:53:00
8:53 AM,35.1,12.0,39,30.03,10.0,WNW,13.8,18.4,N/A,,Clear,290,2012-12-03 15:53:00
9:53 AM,36.0,12.0,37,30.05,10.0,WNW,18.4,-,N/A,,Clear,290,2012-12-03 16:53:00
10:53 AM,36.0,15.1,43,30.07,10.0,SW,6.9,-,N/A,,Clear,220,2012-12-03 17:53:00
11:33 AM,42.8,12.2,29,30.05,10.0,WNW,16.1,-,N/A,,Clear,300,2012-12-03 18:33:00
11:53 AM,43.0,9.0,25,30.02,10.0,West,17.3,-,N/A,,Clear,280,2012-12-03 18:53:00
12:53 PM,46.0,8.1,21,30.01,10.0,West,18.4,23.0,N/A,,Clear,280,2012-12-03 19:53:00
1:53 PM,45.0,6.1,20,30.02,10.0,West,21.9,28.8,N/A,,Clear,280,2012-12-03 20:53:00
2:53 PM,45.0,7.0,21,30.03,10.0,WNW,17.3,24.2,N/A,,Clear,300,2012-12-03 21:53:00
3:53 PM,42.1,9.0,26,30.05,10.0,WNW,19.6,28.8,N/A,,Clear,300,2012-12-03 22:53:00
4:53 PM,37.0,10.9,34,30.10,10.0,NW,21.9,29.9,N/A,,Clear,310,2012-12-03 23:53:00
5:53 PM,36.0,12.0,37,30.13,10.0,WNW,23.0,33.4,N/A,,Clear,300,2012-12-04 00:53:00
6:53 PM,32.0,12.9,45,30.17,10.0,NW,16.1,-,N/A,,Clear,310,2012-12-04 01:53:00
7:53 PM,34.0,12.0,40,30.18,10.0,WNW,21.9,-,N/A,,Clear,300,2012-12-04 02:53:00
8:53 PM,34.0,12.0,40,30.21,10.0,WNW,17.3,-,N/A,,Clear,300,2012-12-04 03:53:00
9:53 PM,32.0,14.0,48,30.23,10.0,WNW,15.0,-,N/A,,Clear,300,2012-12-04 04:53:00
10:53 PM,30.2,12.2,47,30.19,10.0,WSW,11.5,-,N/A,,Clear,240,2012-12-04 05:53:00
11:53 PM,28.0,12.0,51,30.23,10.0,WSW,12.7,-,N/A,,Clear,250,2012-12-04 06:53:00